This is the latest recevied weather packets stored in our database for station/object KA6AKH-13. If no packets are shown the sender has not sent any weather packets the latest 10 day(s).
| Time | Temp. | Humidity | Pressure | Rain* | Wind** | Luminosity | Snow |
|---|---|---|---|---|---|---|---|
| 1777593139 | 15.56° C | 54% | 1011.3 hPa | 0 mm | - | - | - |
| 1777593042 | 15.56° C | 54% | 1011.3 hPa | 0 mm | - | - | - |
| 1777591212 | 16.67° C | 50% | 1010.5 hPa | 0 mm | - | - | - |
| 1777589982 | 17.78° C | 46% | 1010.2 hPa | 0 mm | - | - | - |
| 1777588753 | 18.89° C | 44% | 1009.7 hPa | 0 mm | - | - | - |
| 1777586603 | 19.44° C | 40% | 1009.2 hPa | 0 mm | - | - | - |
| 1777586262 | 19.44° C | 40% | 1009.2 hPa | 0 mm | - | - | - |
| 1777585315 | 20° C | 38% | 1008.7 hPa | 0 mm | - | - | - |
| 1777585004 | 20° C | 38% | 1008.7 hPa | 0 mm | - | - | - |
| 1777583307 | 20° C | 40% | 1008.5 hPa | 0 mm | - | - | - |
| 1777583142 | 20° C | 40% | 1008.5 hPa | 0 mm | - | - | - |
| 1777582542 | 20.56° C | 38% | 1008.4 hPa | 0 mm | - | - | - |
| 1777581912 | 20.56° C | 38% | 1008.4 hPa | 0 mm | - | - | - |
| 1777580652 | 21.11° C | 38% | 1008.1 hPa | 0 mm | - | - | - |
| 1777578162 | 22.22° C | 37% | 1008 hPa | 0 mm | - | - | - |
| 1777577532 | 22.22° C | 37% | 1007.9 hPa | 0 mm | - | - | - |
| 1777576902 | 22.22° C | 39% | 1007.9 hPa | 0 mm | - | - | - |
| 1777575042 | 21.67° C | 40% | 1008 hPa | 0 mm | - | - | - |
| 1777574542 | 21.67° C | 39% | 1008 hPa | 0 mm | - | - | - |
| 1777574442 | 21.67° C | 39% | 1008 hPa | 0 mm | - | - | - |
| 1777570985 | 21.11° C | 42% | 1008.1 hPa | 0 mm | - | - | - |
| 1777570752 | 21.11° C | 42% | 1008.1 hPa | 0 mm | - | - | - |
| 1777570152 | 20.56° C | 47% | 1008.3 hPa | 0 mm | - | - | - |
| 1777569522 | 19.44° C | 45% | 1008.4 hPa | 0 mm | - | - | - |
| 1777568892 | 19.44° C | 45% | 1008.6 hPa | 0 mm | - | - | - |
* Rain latest hour (hover to see other rain measurements)
** Current wind speed in m/s (hover to see current wind gust speed)